sensor_id;sensor_type;location;lat;lon;timestamp;pressure;altitude;pressure_sealevel;temperature
69597;BMP180;56802;51.184;-115.558;2022-09-01T00:00:29;86489.00;;;
69597;BMP180;56802;51.184;-115.558;2022-09-01T00:03:03;86473.80;;;
69597;BMP180;56802;51.184;-115.558;2022-09-01T00:05:33;86467.40;;;
69597;BMP180;56802;51.184;-115.558;2022-09-01T00:08:04;86461.00;;;
69597;BMP180;56802;51.184;-115.558;2022-09-01T00:10:34;86454.20;;;
69597;BMP180;56802;51.184;-115.558;2022-09-01T00:13:04;86456.40;;;
69597;BMP180;56802;51.184;-115.558;2022-09-01T00:15:35;86455.80;;;
69597;BMP180;56802;51.184;-115.558;2022-09-01T00:18:05;86451.80;;;
69597;BMP180;56802;51.184;-115.558;2022-09-01T00:20:34;86455.40;;;
69597;BMP180;56802;51.184;-115.558;2022-09-01T00:23:03;86452.40;;;
69597;BMP180;56802;51.184;-115.558;2022-09-01T00:25:33;86451.40;;;
69597;BMP180;56802;51.184;-115.558;2022-09-01T00:28:02;86441.80;;;
69597;BMP180;56802;51.184;-115.558;2022-09-01T00:30:32;86444.20;;;
69597;BMP180;56802;51.184;-115.558;2022-09-01T00:33:01;86446.00;;;
69597;BMP180;56802;51.184;-115.558;2022-09-01T00:35:31;86443.60;;;
69597;BMP180;56802;51.184;-115.558;2022-09-01T00:38:04;86438.20;;;
69597;BMP180;56802;51.184;-115.558;2022-09-01T00:40:33;86439.60;;;
69597;BMP180;56802;51.184;-115.558;2022-09-01T00:43:38;86434.00;;;
69597;BMP180;56802;51.184;-115.558;2022-09-01T00:46:15;86427.20;;;
69597;BMP180;56802;51.184;-115.558;2022-09-01T00:49:04;86425.00;;;
69597;BMP180;56802;51.184;-115.558;2022-09-01T00:51:36;86426.80;;;
69597;BMP180;56802;51.184;-115.558;2022-09-01T00:54:11;86418.40;;;
69597;BMP180;56802;51.184;-115.558;2022-09-01T00:56:42;86422.80;;;
69597;BMP180;56802;51.184;-115.558;2022-09-01T00:59:19;86417.00;;;
69597;BMP180;56802;51.184;-115.558;2022-09-01T01:01:49;86422.80;;;
69597;BMP180;56802;51.184;-115.558;2022-09-01T01:04:19;86423.20;;;
69597;BMP180;56802;51.184;-115.558;2022-09-01T01:06:54;86420.80;;;
69597;BMP180;56802;51.184;-115.558;2022-09-01T01:09:36;86422.40;;;
69597;BMP180;56802;51.184;-115.558;2022-09-01T01:12:11;86420.40;;;
69597;BMP180;56802;51.184;-115.558;2022-09-01T01:14:48;86411.60;;;
69597;BMP180;56802;51.184;-115.558;2022-09-01T01:17:21;86418.00;;;
69597;BMP180;56802;51.184;-115.558;2022-09-01T01:19:56;86416.00;;;
69597;BMP180;56802;51.184;-115.558;2022-09-01T01:23:09;86412.80;;;
69597;BMP180;56802;51.184;-115.558;2022-09-01T01:25:45;86419.40;;;
69597;BMP180;56802;51.184;-115.558;2022-09-01T01:28:31;86416.60;;;
69597;BMP180;56802;51.184;-115.558;2022-09-01T01:31:09;86415.60;;;
69597;BMP180;56802;51.184;-115.558;2022-09-01T01:33:52;86415.60;;;
69597;BMP180;56802;51.184;-115.558;2022-09-01T01:36:30;86412.60;;;
69597;BMP180;56802;51.184;-115.558;2022-09-01T01:39:13;86411.60;;;
69597;BMP180;56802;51.184;-115.558;2022-09-01T01:41:45;86410.40;;;
69597;BMP180;56802;51.184;-115.558;2022-09-01T01:44:21;86415.40;;;
69597;BMP180;56802;51.184;-115.558;2022-09-01T01:46:56;86416.00;;;
69597;BMP180;56802;51.184;-115.558;2022-09-01T01:49:26;86407.80;;;
69597;BMP180;56802;51.184;-115.558;2022-09-01T01:51:57;86404.80;;;
69597;BMP180;56802;51.184;-115.558;2022-09-01T01:54:27;86405.40;;;
69597;BMP180;56802;51.184;-115.558;2022-09-01T01:57:00;86404.00;;;
69597;BMP180;56802;51.184;-115.558;2022-09-01T01:59:32;86410.60;;;
69597;BMP180;56802;51.184;-115.558;2022-09-01T02:02:02;86407.80;;;
69597;BMP180;56802;51.184;-115.558;2022-09-01T02:04:36;86401.00;;;
69597;BMP180;56802;51.184;-115.558;2022-09-01T02:07:12;86404.20;;;
69597;BMP180;56802;51.184;-115.558;2022-09-01T02:09:41;86405.40;;;
69597;BMP180;56802;51.184;-115.558;2022-09-01T02:12:13;86409.20;;;
69597;BMP180;56802;51.184;-115.558;2022-09-01T02:14:46;86409.80;;;
69597;BMP180;56802;51.184;-115.558;2022-09-01T02:17:17;86408.80;;;
69597;BMP180;56802;51.184;-115.558;2022-09-01T02:19:48;86407.20;;;
69597;BMP180;56802;51.184;-115.558;2022-09-01T02:22:18;86407.40;;;
69597;BMP180;56802;51.184;-115.558;2022-09-01T02:24:49;86408.00;;;
69597;BMP180;56802;51.184;-115.558;2022-09-01T02:27:20;86406.80;;;
69597;BMP180;56802;51.184;-115.558;2022-09-01T02:29:54;86412.80;;;
69597;BMP180;56802;51.184;-115.558;2022-09-01T02:32:26;86409.80;;;
69597;BMP180;56802;51.184;-115.558;2022-09-01T02:34:55;86408.60;;;
69597;BMP180;56802;51.184;-115.558;2022-09-01T02:37:28;86404.80;;;
69597;BMP180;56802;51.184;-115.558;2022-09-01T02:39:58;86400.20;;;
69597;BMP180;56802;51.184;-115.558;2022-09-01T02:42:27;86402.60;;;
69597;BMP180;56802;51.184;-115.558;2022-09-01T02:44:58;86401.20;;;
69597;BMP180;56802;51.184;-115.558;2022-09-01T02:47:29;86404.40;;;
69597;BMP180;56802;51.184;-115.558;2022-09-01T02:49:58;86408.40;;;
69597;BMP180;56802;51.184;-115.558;2022-09-01T02:52:28;86407.00;;;
69597;BMP180;56802;51.184;-115.558;2022-09-01T02:55:07;86406.20;;;
69597;BMP180;56802;51.184;-115.558;2022-09-01T02:57:37;86404.80;;;
69597;BMP180;56802;51.184;-115.558;2022-09-01T03:00:09;86407.00;;;
69597;BMP180;56802;51.184;-115.558;2022-09-01T03:02:51;86410.40;;;
69597;BMP180;56802;51.184;-115.558;2022-09-01T03:05:25;86417.40;;;
69597;BMP180;56802;51.184;-115.558;2022-09-01T03:08:00;86414.80;;;
69597;BMP180;56802;51.184;-115.558;2022-09-01T03:10:40;86416.40;;;
69597;BMP180;56802;51.184;-115.558;2022-09-01T03:13:22;86416.40;;;
69597;BMP180;56802;51.184;-115.558;2022-09-01T03:15:51;86414.40;;;
69597;BMP180;56802;51.184;-115.558;2022-09-01T03:18:20;86408.40;;;
69597;BMP180;56802;51.184;-115.558;2022-09-01T03:20:50;86416.60;;;
69597;BMP180;56802;51.184;-115.558;2022-09-01T03:23:20;86416.20;;;
69597;BMP180;56802;51.184;-115.558;2022-09-01T03:25:50;86417.00;;;
69597;BMP180;56802;51.184;-115.558;2022-09-01T03:28:19;86410.20;;;
69597;BMP180;56802;51.184;-115.558;2022-09-01T03:30:52;86414.20;;;
69597;BMP180;56802;51.184;-115.558;2022-09-01T03:33:25;86415.20;;;
69597;BMP180;56802;51.184;-115.558;2022-09-01T03:35:56;86409.00;;;
69597;BMP180;56802;51.184;-115.558;2022-09-01T03:38:26;86405.40;;;
69597;BMP180;56802;51.184;-115.558;2022-09-01T03:41:01;86399.20;;;
69597;BMP180;56802;51.184;-115.558;2022-09-01T03:43:33;86401.80;;;
69597;BMP180;56802;51.184;-115.558;2022-09-01T03:46:03;86400.40;;;
69597;BMP180;56802;51.184;-115.558;2022-09-01T03:48:32;86395.60;;;
69597;BMP180;56802;51.184;-115.558;2022-09-01T03:51:02;86395.40;;;
69597;BMP180;56802;51.184;-115.558;2022-09-01T03:53:34;86395.80;;;
69597;BMP180;56802;51.184;-115.558;2022-09-01T03:56:06;86397.20;;;
69597;BMP180;56802;51.184;-115.558;2022-09-01T03:58:36;86403.60;;;
69597;BMP180;56802;51.184;-115.558;2022-09-01T04:01:07;86397.40;;;
69597;BMP180;56802;51.184;-115.558;2022-09-01T04:03:40;86396.40;;;
69597;BMP180;56802;51.184;-115.558;2022-09-01T04:06:10;86392.20;;;
69597;BMP180;56802;51.184;-115.558;2022-09-01T04:08:41;86399.20;;;
69597;BMP180;56802;51.184;-115.558;2022-09-01T04:11:17;86395.80;;;
69597;BMP180;56802;51.184;-115.558;2022-09-01T04:13:51;86392.80;;;
69597;BMP180;56802;51.184;-115.558;2022-09-01T04:16:25;86390.00;;;
69597;BMP180;56802;51.184;-115.558;2022-09-01T04:19:19;86389.20;;;
69597;BMP180;56802;51.184;-115.558;2022-09-01T04:21:59;86391.40;;;
69597;BMP180;56802;51.184;-115.558;2022-09-01T04:24:31;86386.80;;;
69597;BMP180;56802;51.184;-115.558;2022-09-01T04:27:03;86387.00;;;
69597;BMP180;56802;51.184;-115.558;2022-09-01T04:29:36;86388.60;;;
69597;BMP180;56802;51.184;-115.558;2022-09-01T04:32:08;86389.00;;;
69597;BMP180;56802;51.184;-115.558;2022-09-01T04:34:39;86393.60;;;
69597;BMP180;56802;51.184;-115.558;2022-09-01T04:37:16;86394.80;;;
69597;BMP180;56802;51.184;-115.558;2022-09-01T04:39:52;86390.60;;;
69597;BMP180;56802;51.184;-115.558;2022-09-01T04:42:27;86386.60;;;
69597;BMP180;56802;51.184;-115.558;2022-09-01T04:44:57;86384.20;;;
69597;BMP180;56802;51.184;-115.558;2022-09-01T04:47:37;86382.40;;;
69597;BMP180;56802;51.184;-115.558;2022-09-01T04:50:11;86389.60;;;
69597;BMP180;56802;51.184;-115.558;2022-09-01T04:52:45;86389.00;;;
69597;BMP180;56802;51.184;-115.558;2022-09-01T04:55:15;86386.20;;;
69597;BMP180;56802;51.184;-115.558;2022-09-01T04:57:49;86389.20;;;
69597;BMP180;56802;51.184;-115.558;2022-09-01T05:00:21;86394.60;;;
69597;BMP180;56802;51.184;-115.558;2022-09-01T05:02:57;86396.80;;;
69597;BMP180;56802;51.184;-115.558;2022-09-01T05:05:43;86390.20;;;
69597;BMP180;56802;51.184;-115.558;2022-09-01T05:08:18;86390.80;;;
69597;BMP180;56802;51.184;-115.558;2022-09-01T05:10:52;86392.80;;;
69597;BMP180;56802;51.184;-115.558;2022-09-01T05:13:24;86388.80;;;
69597;BMP180;56802;51.184;-115.558;2022-09-01T05:16:10;86384.60;;;
69597;BMP180;56802;51.184;-115.558;2022-09-01T05:18:51;86375.60;;;
69597;BMP180;56802;51.184;-115.558;2022-09-01T05:21:23;86377.80;;;
69597;BMP180;56802;51.184;-115.558;2022-09-01T05:23:56;86377.60;;;
69597;BMP180;56802;51.184;-115.558;2022-09-01T05:26:31;86375.00;;;
69597;BMP180;56802;51.184;-115.558;2022-09-01T05:29:05;86369.80;;;
69597;BMP180;56802;51.184;-115.558;2022-09-01T05:31:47;86368.80;;;
69597;BMP180;56802;51.184;-115.558;2022-09-01T05:34:17;86370.00;;;
69597;BMP180;56802;51.184;-115.558;2022-09-01T05:36:51;86367.20;;;
69597;BMP180;56802;51.184;-115.558;2022-09-01T05:39:21;86371.00;;;
69597;BMP180;56802;51.184;-115.558;2022-09-01T05:41:52;86376.60;;;
69597;BMP180;56802;51.184;-115.558;2022-09-01T05:44:22;86372.00;;;
69597;BMP180;56802;51.184;-115.558;2022-09-01T05:46:51;86372.80;;;
69597;BMP180;56802;51.184;-115.558;2022-09-01T05:49:21;86370.80;;;
69597;BMP180;56802;51.184;-115.558;2022-09-01T05:51:53;86363.60;;;
69597;BMP180;56802;51.184;-115.558;2022-09-01T05:54:26;86362.60;;;
69597;BMP180;56802;51.184;-115.558;2022-09-01T05:56:57;86362.40;;;
69597;BMP180;56802;51.184;-115.558;2022-09-01T05:59:46;86364.40;;;
69597;BMP180;56802;51.184;-115.558;2022-09-01T06:02:22;86368.00;;;
69597;BMP180;56802;51.184;-115.558;2022-09-01T06:04:54;86366.40;;;
69597;BMP180;56802;51.184;-115.558;2022-09-01T06:07:27;86363.20;;;
69597;BMP180;56802;51.184;-115.558;2022-09-01T06:09:57;86361.60;;;
69597;BMP180;56802;51.184;-115.558;2022-09-01T06:12:27;86354.60;;;
69597;BMP180;56802;51.184;-115.558;2022-09-01T06:14:57;86359.80;;;
69597;BMP180;56802;51.184;-115.558;2022-09-01T06:17:27;86357.20;;;
69597;BMP180;56802;51.184;-115.558;2022-09-01T06:20:04;86353.40;;;
69597;BMP180;56802;51.184;-115.558;2022-09-01T06:22:38;86354.40;;;
69597;BMP180;56802;51.184;-115.558;2022-09-01T06:25:09;86342.00;;;
69597;BMP180;56802;51.184;-115.558;2022-09-01T06:27:38;86342.60;;;
69597;BMP180;56802;51.184;-115.558;2022-09-01T06:30:12;86341.80;;;
69597;BMP180;56802;51.184;-115.558;2022-09-01T06:32:51;86338.40;;;
69597;BMP180;56802;51.184;-115.558;2022-09-01T06:35:22;86333.20;;;
69597;BMP180;56802;51.184;-115.558;2022-09-01T06:37:57;86332.00;;;
69597;BMP180;56802;51.184;-115.558;2022-09-01T06:40:26;86331.00;;;
69597;BMP180;56802;51.184;-115.558;2022-09-01T06:42:56;86332.00;;;
69597;BMP180;56802;51.184;-115.558;2022-09-01T06:45:28;86330.60;;;
69597;BMP180;56802;51.184;-115.558;2022-09-01T06:48:00;86331.80;;;
69597;BMP180;56802;51.184;-115.558;2022-09-01T06:50:29;86331.20;;;
69597;BMP180;56802;51.184;-115.558;2022-09-01T06:53:18;86334.60;;;
69597;BMP180;56802;51.184;-115.558;2022-09-01T06:56:06;86337.60;;;
69597;BMP180;56802;51.184;-115.558;2022-09-01T06:58:39;86327.80;;;
69597;BMP180;56802;51.184;-115.558;2022-09-01T07:01:11;86334.80;;;
69597;BMP180;56802;51.184;-115.558;2022-09-01T07:03:46;86331.60;;;
69597;BMP180;56802;51.184;-115.558;2022-09-01T07:06:16;86330.00;;;
69597;BMP180;56802;51.184;-115.558;2022-09-01T07:09:06;86330.20;;;
69597;BMP180;56802;51.184;-115.558;2022-09-01T07:11:55;86322.40;;;
69597;BMP180;56802;51.184;-115.558;2022-09-01T07:14:46;86314.00;;;
69597;BMP180;56802;51.184;-115.558;2022-09-01T07:17:36;86318.00;;;
69597;BMP180;56802;51.184;-115.558;2022-09-01T07:20:09;86314.80;;;
69597;BMP180;56802;51.184;-115.558;2022-09-01T07:22:56;86308.60;;;
69597;BMP180;56802;51.184;-115.558;2022-09-01T07:25:42;86312.40;;;
69597;BMP180;56802;51.184;-115.558;2022-09-01T07:28:33;86319.40;;;
69597;BMP180;56802;51.184;-115.558;2022-09-01T07:31:04;86311.80;;;
69597;BMP180;56802;51.184;-115.558;2022-09-01T07:34:00;86308.80;;;
69597;BMP180;56802;51.184;-115.558;2022-09-01T07:36:49;86305.20;;;
69597;BMP180;56802;51.184;-115.558;2022-09-01T07:39:38;86318.20;;;
69597;BMP180;56802;51.184;-115.558;2022-09-01T07:42:19;86314.40;;;
69597;BMP180;56802;51.184;-115.558;2022-09-01T07:45:10;86316.00;;;
69597;BMP180;56802;51.184;-115.558;2022-09-01T07:47:57;86309.20;;;
69597;BMP180;56802;51.184;-115.558;2022-09-01T07:50:42;86303.80;;;
69597;BMP180;56802;51.184;-115.558;2022-09-01T07:53:35;86302.80;;;
69597;BMP180;56802;51.184;-115.558;2022-09-01T07:56:09;86299.40;;;
69597;BMP180;56802;51.184;-115.558;2022-09-01T07:58:39;86300.40;;;
69597;BMP180;56802;51.184;-115.558;2022-09-01T08:01:17;86298.60;;;
69597;BMP180;56802;51.184;-115.558;2022-09-01T08:03:56;86295.00;;;
69597;BMP180;56802;51.184;-115.558;2022-09-01T08:06:27;86299.20;;;
69597;BMP180;56802;51.184;-115.558;2022-09-01T08:09:04;86300.40;;;
69597;BMP180;56802;51.184;-115.558;2022-09-01T08:11:58;86299.80;;;
69597;BMP180;56802;51.184;-115.558;2022-09-01T08:14:29;86302.40;;;
69597;BMP180;56802;51.184;-115.558;2022-09-01T08:17:01;86300.80;;;
69597;BMP180;56802;51.184;-115.558;2022-09-01T08:19:50;86298.40;;;
69597;BMP180;56802;51.184;-115.558;2022-09-01T08:22:20;86302.80;;;
69597;BMP180;56802;51.184;-115.558;2022-09-01T08:24:52;86299.60;;;
69597;BMP180;56802;51.184;-115.558;2022-09-01T08:27:21;86297.40;;;
69597;BMP180;56802;51.184;-115.558;2022-09-01T08:29:51;86300.80;;;
69597;BMP180;56802;51.184;-115.558;2022-09-01T08:32:20;86300.40;;;
69597;BMP180;56802;51.184;-115.558;2022-09-01T08:34:51;86299.00;;;
69597;BMP180;56802;51.184;-115.558;2022-09-01T08:37:21;86308.80;;;
69597;BMP180;56802;51.184;-115.558;2022-09-01T08:39:51;86311.60;;;
69597;BMP180;56802;51.184;-115.558;2022-09-01T08:48:22;86309.60;;;
69597;BMP180;56802;51.184;-115.558;2022-09-01T08:57:15;86311.00;;;
69597;BMP180;56802;51.184;-115.558;2022-09-01T08:59:46;86308.60;;;
69597;BMP180;56802;51.184;-115.558;2022-09-01T09:05:42;86299.60;;;
69597;BMP180;56802;51.184;-115.558;2022-09-01T09:19:45;86298.80;;;
69597;BMP180;56802;51.184;-115.558;2022-09-01T09:22:18;86294.20;;;
69597;BMP180;56802;51.184;-115.558;2022-09-01T09:24:58;86288.80;;;
69597;BMP180;56802;51.184;-115.558;2022-09-01T09:27:39;86289.60;;;
69597;BMP180;56802;51.184;-115.558;2022-09-01T09:30:22;86290.80;;;
69597;BMP180;56802;51.184;-115.558;2022-09-01T09:33:05;86292.60;;;
69597;BMP180;56802;51.184;-115.558;2022-09-01T09:36:29;86286.40;;;
69597;BMP180;56802;51.184;-115.558;2022-09-01T09:39:18;86282.60;;;
69597;BMP180;56802;51.184;-115.558;2022-09-01T09:42:11;86288.20;;;
69597;BMP180;56802;51.184;-115.558;2022-09-01T09:44:49;86289.20;;;
69597;BMP180;56802;51.184;-115.558;2022-09-01T09:47:43;86284.00;;;
69597;BMP180;56802;51.184;-115.558;2022-09-01T09:50:27;86281.20;;;
69597;BMP180;56802;51.184;-115.558;2022-09-01T09:53:26;86280.20;;;
69597;BMP180;56802;51.184;-115.558;2022-09-01T09:56:03;86274.20;;;
69597;BMP180;56802;51.184;-115.558;2022-09-01T09:58:40;86279.00;;;
69597;BMP180;56802;51.184;-115.558;2022-09-01T10:01:27;86272.20;;;
69597;BMP180;56802;51.184;-115.558;2022-09-01T10:04:01;86275.40;;;
69597;BMP180;56802;51.184;-115.558;2022-09-01T10:06:38;86269.80;;;
69597;BMP180;56802;51.184;-115.558;2022-09-01T10:09:36;86276.60;;;
69597;BMP180;56802;51.184;-115.558;2022-09-01T10:12:10;86276.00;;;
69597;BMP180;56802;51.184;-115.558;2022-09-01T10:14:53;86277.80;;;
69597;BMP180;56802;51.184;-115.558;2022-09-01T10:17:31;86269.60;;;
69597;BMP180;56802;51.184;-115.558;2022-09-01T10:20:13;86267.20;;;
69597;BMP180;56802;51.184;-115.558;2022-09-01T10:22:46;86269.40;;;
69597;BMP180;56802;51.184;-115.558;2022-09-01T10:25:31;86275.80;;;
69597;BMP180;56802;51.184;-115.558;2022-09-01T10:28:17;86271.60;;;
69597;BMP180;56802;51.184;-115.558;2022-09-01T10:30:53;86273.20;;;
69597;BMP180;56802;51.184;-115.558;2022-09-01T10:33:24;86275.00;;;
69597;BMP180;56802;51.184;-115.558;2022-09-01T10:35:55;86280.60;;;
69597;BMP180;56802;51.184;-115.558;2022-09-01T10:38:29;86276.00;;;
69597;BMP180;56802;51.184;-115.558;2022-09-01T10:40:59;86280.20;;;
69597;BMP180;56802;51.184;-115.558;2022-09-01T10:43:48;86286.60;;;
69597;BMP180;56802;51.184;-115.558;2022-09-01T10:48:56;86292.80;;;
69597;BMP180;56802;51.184;-115.558;2022-09-01T10:54:06;86284.60;;;
69597;BMP180;56802;51.184;-115.558;2022-09-01T10:56:46;86287.20;;;
69597;BMP180;56802;51.184;-115.558;2022-09-01T11:02:18;86277.20;;;
69597;BMP180;56802;51.184;-115.558;2022-09-01T11:07:34;86279.20;;;
69597;BMP180;56802;51.184;-115.558;2022-09-01T11:14:05;86275.00;;;
69597;BMP180;56802;51.184;-115.558;2022-09-01T11:16:40;86269.00;;;
69597;BMP180;56802;51.184;-115.558;2022-09-01T11:19:44;86273.40;;;
69597;BMP180;56802;51.184;-115.558;2022-09-01T11:31:15;86283.80;;;
69597;BMP180;56802;51.184;-115.558;2022-09-01T11:34:06;86284.80;;;
69597;BMP180;56802;51.184;-115.558;2022-09-01T11:42:11;86294.00;;;
69597;BMP180;56802;51.184;-115.558;2022-09-01T11:47:38;86285.80;;;
69597;BMP180;56802;51.184;-115.558;2022-09-01T11:50:32;86288.40;;;
69597;BMP180;56802;51.184;-115.558;2022-09-01T11:53:29;86284.00;;;
69597;BMP180;56802;51.184;-115.558;2022-09-01T11:56:16;86277.00;;;
69597;BMP180;56802;51.184;-115.558;2022-09-01T11:58:45;86280.00;;;
69597;BMP180;56802;51.184;-115.558;2022-09-01T12:01:32;86276.60;;;
69597;BMP180;56802;51.184;-115.558;2022-09-01T12:04:24;86279.60;;;
69597;BMP180;56802;51.184;-115.558;2022-09-01T12:07:03;86276.80;;;
69597;BMP180;56802;51.184;-115.558;2022-09-01T12:09:42;86272.20;;;
69597;BMP180;56802;51.184;-115.558;2022-09-01T12:12:35;86272.20;;;
69597;BMP180;56802;51.184;-115.558;2022-09-01T12:17:46;86270.60;;;
69597;BMP180;56802;51.184;-115.558;2022-09-01T12:20:37;86272.20;;;
69597;BMP180;56802;51.184;-115.558;2022-09-01T12:23:26;86275.00;;;
69597;BMP180;56802;51.184;-115.558;2022-09-01T12:25:59;86260.40;;;
69597;BMP180;56802;51.184;-115.558;2022-09-01T12:28:32;86267.00;;;
69597;BMP180;56802;51.184;-115.558;2022-09-01T12:31:17;86268.20;;;
69597;BMP180;56802;51.184;-115.558;2022-09-01T12:33:48;86261.80;;;
69597;BMP180;56802;51.184;-115.558;2022-09-01T12:36:30;86264.60;;;
69597;BMP180;56802;51.184;-115.558;2022-09-01T12:39:23;86261.80;;;
69597;BMP180;56802;51.184;-115.558;2022-09-01T12:42:25;86269.00;;;
69597;BMP180;56802;51.184;-115.558;2022-09-01T12:45:10;86269.60;;;
69597;BMP180;56802;51.184;-115.558;2022-09-01T12:55:26;86281.20;;;
69597;BMP180;56802;51.184;-115.558;2022-09-01T12:58:23;86286.00;;;
69597;BMP180;56802;51.184;-115.558;2022-09-01T13:01:03;86282.20;;;
69597;BMP180;56802;51.184;-115.558;2022-09-01T13:04:08;86283.80;;;
69597;BMP180;56802;51.184;-115.558;2022-09-01T13:06:38;86276.60;;;
69597;BMP180;56802;51.184;-115.558;2022-09-01T13:09:08;86275.20;;;
69597;BMP180;56802;51.184;-115.558;2022-09-01T13:11:38;86286.00;;;
69597;BMP180;56802;51.184;-115.558;2022-09-01T13:14:27;86287.20;;;
69597;BMP180;56802;51.184;-115.558;2022-09-01T13:16:57;86295.20;;;
69597;BMP180;56802;51.184;-115.558;2022-09-01T13:19:27;86296.20;;;
69597;BMP180;56802;51.184;-115.558;2022-09-01T13:21:57;86298.40;;;
69597;BMP180;56802;51.184;-115.558;2022-09-01T13:24:26;86302.80;;;
69597;BMP180;56802;51.184;-115.558;2022-09-01T13:26:58;86314.80;;;
69597;BMP180;56802;51.184;-115.558;2022-09-01T13:29:49;86319.80;;;
69597;BMP180;56802;51.184;-115.558;2022-09-01T13:32:19;86320.60;;;
69597;BMP180;56802;51.184;-115.558;2022-09-01T13:34:52;86322.00;;;
69597;BMP180;56802;51.184;-115.558;2022-09-01T13:37:22;86320.20;;;
69597;BMP180;56802;51.184;-115.558;2022-09-01T13:39:52;86323.20;;;
69597;BMP180;56802;51.184;-115.558;2022-09-01T13:42:21;86322.00;;;
69597;BMP180;56802;51.184;-115.558;2022-09-01T13:44:55;86329.80;;;
69597;BMP180;56802;51.184;-115.558;2022-09-01T13:47:24;86328.00;;;
69597;BMP180;56802;51.184;-115.558;2022-09-01T13:49:57;86332.20;;;
69597;BMP180;56802;51.184;-115.558;2022-09-01T13:52:43;86329.20;;;
69597;BMP180;56802;51.184;-115.558;2022-09-01T13:55:29;86334.80;;;
69597;BMP180;56802;51.184;-115.558;2022-09-01T13:57:59;86339.80;;;
69597;BMP180;56802;51.184;-115.558;2022-09-01T14:00:32;86340.00;;;
69597;BMP180;56802;51.184;-115.558;2022-09-01T14:03:09;86346.00;;;
69597;BMP180;56802;51.184;-115.558;2022-09-01T14:05:43;86354.00;;;
69597;BMP180;56802;51.184;-115.558;2022-09-01T14:08:18;86353.80;;;
69597;BMP180;56802;51.184;-115.558;2022-09-01T14:10:51;86356.40;;;
69597;BMP180;56802;51.184;-115.558;2022-09-01T14:13:23;86355.00;;;
69597;BMP180;56802;51.184;-115.558;2022-09-01T14:15:53;86357.00;;;
69597;BMP180;56802;51.184;-115.558;2022-09-01T14:18:22;86358.40;;;
69597;BMP180;56802;51.184;-115.558;2022-09-01T14:20:56;86357.40;;;
69597;BMP180;56802;51.184;-115.558;2022-09-01T14:23:28;86364.00;;;
69597;BMP180;56802;51.184;-115.558;2022-09-01T14:25:57;86357.00;;;
69597;BMP180;56802;51.184;-115.558;2022-09-01T14:28:27;86354.40;;;
69597;BMP180;56802;51.184;-115.558;2022-09-01T14:30:56;86361.00;;;
69597;BMP180;56802;51.184;-115.558;2022-09-01T14:33:23;86360.20;;;
69597;BMP180;56802;51.184;-115.558;2022-09-01T14:35:54;86362.80;;;
69597;BMP180;56802;51.184;-115.558;2022-09-01T14:38:24;86356.20;;;
69597;BMP180;56802;51.184;-115.558;2022-09-01T14:40:53;86362.00;;;
69597;BMP180;56802;51.184;-115.558;2022-09-01T14:43:22;86360.80;;;
69597;BMP180;56802;51.184;-115.558;2022-09-01T14:46:06;86362.60;;;
69597;BMP180;56802;51.184;-115.558;2022-09-01T14:48:39;86361.80;;;
69597;BMP180;56802;51.184;-115.558;2022-09-01T14:51:19;86366.00;;;
69597;BMP180;56802;51.184;-115.558;2022-09-01T14:53:51;86370.80;;;
69597;BMP180;56802;51.184;-115.558;2022-09-01T14:56:23;86375.40;;;
69597;BMP180;56802;51.184;-115.558;2022-09-01T14:58:53;86378.40;;;
69597;BMP180;56802;51.184;-115.558;2022-09-01T15:01:28;86380.20;;;
69597;BMP180;56802;51.184;-115.558;2022-09-01T15:04:02;86378.80;;;
69597;BMP180;56802;51.184;-115.558;2022-09-01T15:06:31;86378.20;;;
69597;BMP180;56802;51.184;-115.558;2022-09-01T15:09:01;86383.80;;;
69597;BMP180;56802;51.184;-115.558;2022-09-01T15:11:31;86377.20;;;
69597;BMP180;56802;51.184;-115.558;2022-09-01T15:14:06;86377.00;;;
69597;BMP180;56802;51.184;-115.558;2022-09-01T15:16:37;86375.20;;;
69597;BMP180;56802;51.184;-115.558;2022-09-01T15:19:11;86367.00;;;
69597;BMP180;56802;51.184;-115.558;2022-09-01T15:21:44;86377.00;;;
69597;BMP180;56802;51.184;-115.558;2022-09-01T15:24:14;86377.20;;;
69597;BMP180;56802;51.184;-115.558;2022-09-01T15:26:45;86376.60;;;
69597;BMP180;56802;51.184;-115.558;2022-09-01T15:29:14;86371.60;;;
69597;BMP180;56802;51.184;-115.558;2022-09-01T15:31:44;86371.80;;;
69597;BMP180;56802;51.184;-115.558;2022-09-01T15:34:14;86367.00;;;
69597;BMP180;56802;51.184;-115.558;2022-09-01T15:36:45;86368.40;;;
69597;BMP180;56802;51.184;-115.558;2022-09-01T15:39:15;86370.40;;;
69597;BMP180;56802;51.184;-115.558;2022-09-01T15:41:46;86367.60;;;
69597;BMP180;56802;51.184;-115.558;2022-09-01T15:44:16;86367.00;;;
69597;BMP180;56802;51.184;-115.558;2022-09-01T15:46:45;86369.00;;;
69597;BMP180;56802;51.184;-115.558;2022-09-01T15:49:14;86368.80;;;
69597;BMP180;56802;51.184;-115.558;2022-09-01T15:51:45;86362.40;;;
69597;BMP180;56802;51.184;-115.558;2022-09-01T15:54:18;86358.00;;;
69597;BMP180;56802;51.184;-115.558;2022-09-01T15:56:47;86359.60;;;
69597;BMP180;56802;51.184;-115.558;2022-09-01T15:59:17;86355.60;;;
69597;BMP180;56802;51.184;-115.558;2022-09-01T16:01:46;86358.20;;;
69597;BMP180;56802;51.184;-115.558;2022-09-01T16:04:16;86367.60;;;
69597;BMP180;56802;51.184;-115.558;2022-09-01T16:06:53;86361.40;;;
69597;BMP180;56802;51.184;-115.558;2022-09-01T16:09:24;86366.20;;;
69597;BMP180;56802;51.184;-115.558;2022-09-01T16:11:54;86367.80;;;
69597;BMP180;56802;51.184;-115.558;2022-09-01T16:14:23;86367.40;;;
69597;BMP180;56802;51.184;-115.558;2022-09-01T16:17:22;86362.80;;;
69597;BMP180;56802;51.184;-115.558;2022-09-01T16:20:09;86365.00;;;
69597;BMP180;56802;51.184;-115.558;2022-09-01T16:23:07;86358.20;;;
69597;BMP180;56802;51.184;-115.558;2022-09-01T16:25:38;86366.20;;;
69597;BMP180;56802;51.184;-115.558;2022-09-01T16:28:35;86371.20;;;
69597;BMP180;56802;51.184;-115.558;2022-09-01T16:31:13;86364.60;;;
69597;BMP180;56802;51.184;-115.558;2022-09-01T16:33:51;86363.00;;;